Time;durP1;ratioP1;P1;durP2;ratioP2;P2;SDS_P1;SDS_P2;PMS_P1;PMS_P2;Temp;Humidity;BMP_temperature;BMP_pressure;BME280_temperature;BME280_humidity;BME280_pressure;Samples;Min_cycle;Max_cycle;Signal;HPM_P1;HPM_P2
2022/09/22 00:00:35;;;;;;;3.40;2.87;;;7.30;99.90;;;;;;4954455;28;20196;-75
2022/09/22 00:03:00;;;;;;;5.83;2.40;;;7.30;99.90;;;;;;4955575;28;20294;-76
2022/09/22 00:05:26;;;;;;;5.50;2.70;;;7.30;99.90;;;;;;4955147;29;20188;-76
2022/09/22 00:07:52;;;;;;;8.50;3.20;;;7.20;99.90;;;;;;4955275;29;20220;-79
2022/09/22 00:10:20;;;;;;;3.65;3.30;;;7.20;99.90;;;;;;4955452;29;20234;-78
2022/09/22 00:12:48;;;;;;;5.75;4.03;;;7.20;99.90;;;;;;4955358;29;20684;-78
2022/09/22 00:15:14;;;;;;;5.78;4.20;;;7.20;99.90;;;;;;4955018;28;20180;-75
2022/09/22 00:17:39;;;;;;;4.07;3.57;;;7.20;99.90;;;;;;4954986;29;20200;-77
2022/09/22 00:20:05;;;;;;;7.73;2.93;;;7.20;99.90;;;;;;4955341;28;20507;-77
2022/09/22 00:22:32;;;;;;;3.67;2.47;;;7.10;99.90;;;;;;4955218;29;20209;-79
2022/09/22 00:24:58;;;;;;;9.55;3.72;;;7.10;99.90;;;;;;4955105;29;20177;-75
2022/09/22 00:27:25;;;;;;;4.20;3.40;;;7.10;99.90;;;;;;4955076;29;20201;-77
2022/09/22 00:29:51;;;;;;;3.78;2.88;;;7.10;99.90;;;;;;4955185;29;20673;-80
2022/09/22 00:32:17;;;;;;;5.78;2.80;;;7.00;99.90;;;;;;4955173;29;20172;-77
2022/09/22 00:34:43;;;;;;;6.20;2.70;;;7.00;99.90;;;;;;4954944;29;20327;-76
2022/09/22 00:37:10;;;;;;;3.88;2.92;;;6.90;99.90;;;;;;4955081;29;20223;-74
2022/09/22 00:39:35;;;;;;;4.00;3.05;;;6.90;99.90;;;;;;4955058;29;20554;-77
2022/09/22 00:42:01;;;;;;;5.60;2.93;;;7.00;99.90;;;;;;4955067;29;20179;-79
2022/09/22 00:44:42;;;;;;;6.55;2.92;;;7.00;99.90;;;;;;4954913;28;20705;-77
2022/09/22 00:47:14;;;;;;;4.30;3.33;;;6.90;99.90;;;;;;4955164;29;20192;-76
2022/09/22 00:49:54;;;;;;;6.57;3.83;;;6.90;99.90;;;;;;4955165;29;20173;-77
2022/09/22 00:52:33;;;;;;;7.07;4.30;;;6.90;99.90;;;;;;4956045;28;20260;-77
2022/09/22 00:55:03;;;;;;;8.13;3.28;;;6.90;99.90;;;;;;4958737;29;20626;-78
2022/09/22 00:57:32;;;;;;;5.40;3.58;;;6.90;99.90;;;;;;4958784;29;20216;-77
2022/09/22 00:59:58;;;;;;;6.32;3.33;;;6.90;99.90;;;;;;4958837;29;20614;-79
2022/09/22 01:02:24;;;;;;;4.18;3.38;;;6.90;99.90;;;;;;4958855;28;20267;-76
2022/09/22 01:04:51;;;;;;;4.07;3.50;;;6.90;99.90;;;;;;4957222;29;20264;-77
2022/09/22 01:07:23;;;;;;;4.20;3.05;;;6.90;99.90;;;;;;4958414;29;20494;-76
2022/09/22 01:09:48;;;;;;;5.45;3.28;;;6.90;99.90;;;;;;4957240;29;20180;-77
2022/09/22 01:12:14;;;;;;;6.47;3.27;;;6.90;99.90;;;;;;4958578;29;20236;-75
2022/09/22 01:15:03;;;;;;;4.40;3.47;;;6.80;99.90;;;;;;4958162;29;20204;-76
2022/09/22 01:17:44;;;;;;;7.22;2.92;;;6.80;99.90;;;;;;4958402;29;20558;-76
2022/09/22 01:20:29;;;;;;;6.45;3.53;;;6.80;99.90;;;;;;4957109;29;20188;-78
2022/09/22 01:23:31;;;;;;;4.35;3.15;;;6.80;99.90;;;;;;4958548;29;20654;-78
2022/09/22 01:26:16;;;;;;;4.85;2.63;;;6.80;99.90;;;;;;4957809;29;20283;-78
2022/09/22 01:28:53;;;;;;;4.60;3.15;;;6.70;99.90;;;;;;4958094;28;20295;-75
2022/09/22 01:31:51;;;;;;;5.47;3.80;;;6.70;99.90;;;;;;4958254;28;20691;-77
2022/09/22 01:34:50;;;;;;;3.80;3.15;;;6.70;99.90;;;;;;4957893;29;20176;-78
2022/09/22 01:37:24;;;;;;;4.95;3.70;;;6.70;99.90;;;;;;4958289;29;20200;-78
2022/09/22 01:40:00;;;;;;;4.40;2.80;;;6.70;99.90;;;;;;4958332;29;20177;-77
2022/09/22 01:42:36;;;;;;;4.55;3.60;;;6.70;99.90;;;;;;4958256;29;20553;-77
2022/09/22 01:45:14;;;;;;;5.47;2.92;;;6.70;99.90;;;;;;4957807;29;20253;-77
2022/09/22 01:47:57;;;;;;;5.50;3.30;;;6.70;99.90;;;;;;4957893;29;20682;-76
2022/09/22 01:50:38;;;;;;;3.05;2.60;;;6.70;99.90;;;;;;4958050;29;20172;-76
2022/09/22 01:53:07;;;;;;;7.45;3.10;;;6.70;99.90;;;;;;4958424;29;20168;-78
2022/09/22 01:55:37;;;;;;;4.60;3.38;;;6.60;99.90;;;;;;4957633;29;20192;-77
2022/09/22 01:58:10;;;;;;;5.43;3.17;;;6.60;99.90;;;;;;4957665;29;20542;-75
2022/09/22 02:00:39;;;;;;;5.50;3.15;;;6.60;99.90;;;;;;4957838;29;20539;-77
2022/09/22 02:03:20;;;;;;;3.53;3.15;;;6.60;99.90;;;;;;4957749;28;20181;-74
2022/09/22 02:05:58;;;;;;;5.68;3.15;;;6.50;99.90;;;;;;4956747;29;20184;-77
2022/09/22 02:08:32;;;;;;;4.07;3.35;;;6.50;99.90;;;;;;4957559;29;20284;-76
2022/09/22 02:11:06;;;;;;;6.20;3.20;;;6.50;99.90;;;;;;4957736;29;20511;-76
2022/09/22 02:13:32;;;;;;;3.20;2.65;;;6.50;99.90;;;;;;4957608;29;20172;-77
2022/09/22 02:16:01;;;;;;;4.57;3.40;;;6.50;99.90;;;;;;4957046;29;20687;-76
2022/09/22 02:18:42;;;;;;;4.78;3.00;;;6.50;99.90;;;;;;4957310;29;20657;-75
2022/09/22 02:21:09;;;;;;;3.40;3.00;;;6.50;99.90;;;;;;4957375;29;20583;-75
2022/09/22 02:23:34;;;;;;;5.18;3.22;;;6.50;99.90;;;;;;4957449;29;20648;-77
2022/09/22 02:26:02;;;;;;;7.73;3.80;;;6.50;99.90;;;;;;4956872;29;20255;-78
2022/09/22 02:28:30;;;;;;;3.83;2.85;;;6.50;99.90;;;;;;4957353;29;20619;-75
2022/09/22 02:30:58;;;;;;;4.00;3.08;;;6.40;99.90;;;;;;4957306;28;20564;-75
2022/09/22 02:33:25;;;;;;;3.95;3.22;;;6.40;99.90;;;;;;4957259;28;20173;-77
2022/09/22 02:36:01;;;;;;;3.13;2.83;;;6.40;99.90;;;;;;4956818;28;20646;-77
2022/09/22 02:38:38;;;;;;;3.10;2.80;;;6.40;99.90;;;;;;4957005;29;20188;-76
2022/09/22 02:41:12;;;;;;;4.20;3.03;;;6.40;99.90;;;;;;4956977;28;20204;-76
2022/09/22 02:43:59;;;;;;;7.07;3.53;;;6.30;99.90;;;;;;4957005;29;20517;-75
2022/09/22 02:46:41;;;;;;;4.15;3.30;;;6.30;99.90;;;;;;4956722;29;20207;-78
2022/09/22 02:49:13;;;;;;;8.85;3.13;;;6.30;99.90;;;;;;4956870;29;20208;-75
2022/09/22 02:51:39;;;;;;;5.07;3.25;;;6.30;99.90;;;;;;4956979;29;20177;-76
2022/09/22 02:54:05;;;;;;;4.70;3.53;;;6.30;99.90;;;;;;4955187;28;20538;-77
2022/09/22 02:56:31;;;;;;;6.90;2.60;;;6.30;99.90;;;;;;4956573;29;20208;-76
2022/09/22 02:58:56;;;;;;;5.75;3.63;;;6.30;99.90;;;;;;4955593;29;20185;-76
2022/09/22 03:01:22;;;;;;;5.13;3.20;;;6.30;99.90;;;;;;4955457;29;20277;-76
2022/09/22 03:03:47;;;;;;;8.33;3.20;;;6.30;99.90;;;;;;4956361;29;20188;-78
2022/09/22 03:06:13;;;;;;;3.90;2.77;;;6.30;99.90;;;;;;4956339;29;20223;-77
2022/09/22 03:08:39;;;;;;;3.80;2.57;;;6.30;99.90;;;;;;4956288;29;20284;-75
2022/09/22 03:11:04;;;;;;;2.93;2.63;;;6.30;99.90;;;;;;4956346;29;20200;-76
2022/09/22 03:13:30;;;;;;;3.90;2.70;;;6.30;99.90;;;;;;4956410;28;20177;-77
2022/09/22 03:15:55;;;;;;;3.83;3.27;;;6.30;99.90;;;;;;4954821;28;20203;-75
2022/09/22 03:18:21;;;;;;;8.53;2.97;;;6.30;99.90;;;;;;4956134;29;20774;-75
2022/09/22 03:20:46;;;;;;;6.90;3.17;;;6.30;99.90;;;;;;4956153;28;20207;-75
2022/09/22 03:23:12;;;;;;;5.83;3.10;;;6.30;99.90;;;;;;4956272;28;20177;-75
2022/09/22 03:25:38;;;;;;;3.63;3.17;;;6.30;99.90;;;;;;4955745;29;20720;-74
2022/09/22 03:28:03;;;;;;;3.63;3.00;;;6.30;99.90;;;;;;4956237;29;20236;-76
2022/09/22 03:30:29;;;;;;;4.27;3.00;;;6.30;99.90;;;;;;4955780;28;20556;-76
2022/09/22 03:32:55;;;;;;;6.43;3.10;;;6.30;99.90;;;;;;4954705;28;20265;-76
2022/09/22 03:35:20;;;;;;;4.00;3.23;;;6.30;99.90;;;;;;4955668;29;20207;-76
2022/09/22 03:37:46;;;;;;;6.77;3.43;;;6.20;99.90;;;;;;4955802;29;20207;-75
2022/09/22 03:40:12;;;;;;;9.50;3.17;;;6.20;99.90;;;;;;4956049;29;20188;-76
2022/09/22 03:42:38;;;;;;;3.40;2.85;;;6.20;99.90;;;;;;4955866;29;20181;-75
2022/09/22 03:45:04;;;;;;;5.43;2.90;;;6.10;99.90;;;;;;4954295;29;20549;-74
2022/09/22 03:47:30;;;;;;;4.28;3.30;;;6.10;99.90;;;;;;4955863;29;20622;-75
2022/09/22 03:49:55;;;;;;;5.05;3.03;;;6.10;99.90;;;;;;4954486;29;20215;-76
2022/09/22 03:52:21;;;;;;;4.33;3.47;;;6.10;99.90;;;;;;4955739;29;20567;-76
2022/09/22 03:54:47;;;;;;;3.50;2.45;;;6.00;99.90;;;;;;4955306;29;20322;-76
2022/09/22 03:57:13;;;;;;;4.83;3.70;;;6.00;99.90;;;;;;4955660;29;20677;-77
2022/09/22 03:59:39;;;;;;;3.87;3.27;;;5.90;99.90;;;;;;4955668;29;20175;-74
2022/09/22 04:02:04;;;;;;;2.83;2.37;;;5.90;99.90;;;;;;4955580;29;20423;-76
2022/09/22 04:04:31;;;;;;;3.60;3.23;;;5.90;99.90;;;;;;4955173;29;20672;-74
2022/09/22 04:06:57;;;;;;;3.95;2.72;;;5.80;99.90;;;;;;4955277;28;20638;-76
2022/09/22 04:09:22;;;;;;;6.83;3.03;;;5.80;99.90;;;;;;4955195;29;20247;-76
2022/09/22 04:11:48;;;;;;;3.73;2.90;;;5.70;99.90;;;;;;4955400;28;20424;-75
2022/09/22 04:14:14;;;;;;;6.93;2.40;;;5.70;99.90;;;;;;4955152;29;20181;-77
2022/09/22 04:16:41;;;;;;;4.90;3.30;;;5.70;99.90;;;;;;4955309;29;20208;-73
2022/09/22 04:19:08;;;;;;;6.95;2.70;;;5.70;99.90;;;;;;4955403;29;20181;-77
2022/09/22 04:21:33;;;;;;;5.00;2.70;;;5.70;99.90;;;;;;4955370;29;20184;-74
2022/09/22 04:23:59;;;;;;;9.13;4.40;;;5.70;99.90;;;;;;4955225;29;20193;-74
2022/09/22 04:26:24;;;;;;;9.57;4.10;;;5.60;99.90;;;;;;4954753;28;20255;-73
2022/09/22 04:28:50;;;;;;;5.87;4.30;;;5.60;99.90;;;;;;4954908;29;20217;-76
2022/09/22 04:31:16;;;;;;;8.10;4.50;;;5.60;99.90;;;;;;4955379;29;20181;-76
2022/09/22 04:33:41;;;;;;;10.10;5.43;;;5.60;99.90;;;;;;4955370;29;20228;-74
2022/09/22 04:36:07;;;;;;;9.37;7.13;;;5.50;99.90;;;;;;4937861;29;20200;-74
2022/09/22 04:38:33;;;;;;;10.53;7.43;;;5.50;99.90;;;;;;4955185;29;20256;-77
2022/09/22 04:41:00;;;;;;;10.67;7.40;;;5.50;99.90;;;;;;4954681;28;20435;-75
2022/09/22 04:43:25;;;;;;;6.15;4.10;;;5.60;99.90;;;;;;4938262;29;20409;-75
2022/09/22 04:45:51;;;;;;;8.33;3.87;;;5.60;99.90;;;;;;4955066;28;20239;-73
2022/09/22 04:48:17;;;;;;;5.83;3.50;;;5.50;99.90;;;;;;4953714;29;20279;-74
2022/09/22 04:50:43;;;;;;;5.47;3.50;;;5.50;99.90;;;;;;4955375;28;20535;-77
2022/09/22 04:53:09;;;;;;;4.50;3.00;;;5.50;99.90;;;;;;4954824;29;20314;-76
2022/09/22 04:55:35;;;;;;;4.87;3.13;;;5.40;99.90;;;;;;4954649;29;20425;-75
2022/09/22 04:58:00;;;;;;;7.10;4.38;;;5.40;99.90;;;;;;4954831;29;20443;-75
2022/09/22 05:00:28;;;;;;;11.37;4.40;;;5.40;99.90;;;;;;4954795;29;20571;-74
2022/09/22 05:02:54;;;;;;;5.72;3.70;;;5.40;99.90;;;;;;4954143;29;20424;-76
2022/09/22 05:05:20;;;;;;;6.40;3.97;;;5.40;99.90;;;;;;4954500;29;20709;-76
2022/09/22 05:07:47;;;;;;;6.88;3.47;;;5.30;99.90;;;;;;4954776;29;20216;-74
2022/09/22 05:10:16;;;;;;;4.80;3.53;;;5.30;99.90;;;;;;4954812;29;20207;-75
2022/09/22 05:12:43;;;;;;;5.57;3.53;;;5.30;99.90;;;;;;4937668;29;20177;-76
2022/09/22 05:15:11;;;;;;;5.80;3.40;;;5.20;99.90;;;;;;4954375;29;20224;-76
2022/09/22 05:17:36;;;;;;;6.53;4.00;;;5.20;99.90;;;;;;4954455;28;20200;-77
2022/09/22 05:20:04;;;;;;;7.13;3.90;;;5.20;99.90;;;;;;4937582;29;20189;-74
2022/09/22 05:22:30;;;;;;;8.30;4.15;;;5.20;99.90;;;;;;4954923;29;20455;-75
2022/09/22 05:24:56;;;;;;;10.77;3.07;;;5.20;99.90;;;;;;4937167;29;20189;-76
2022/09/22 05:27:22;;;;;;;9.60;3.90;;;5.20;99.90;;;;;;4937424;29;20539;-75
2022/09/22 05:29:48;;;;;;;22.87;4.40;;;5.20;99.90;;;;;;4954859;29;20706;-76
2022/09/22 05:32:13;;;;;;;4.70;3.50;;;5.20;99.90;;;;;;4954804;28;20421;-74
2022/09/22 05:34:39;;;;;;;7.13;3.30;;;5.20;99.90;;;;;;4954867;28;20189;-74
2022/09/22 05:37:05;;;;;;;5.47;4.20;;;5.20;99.90;;;;;;4953614;28;20774;-75
2022/09/22 05:39:30;;;;;;;5.53;4.40;;;5.20;99.90;;;;;;4955590;28;20189;-75
2022/09/22 05:41:56;;;;;;;7.00;3.80;;;5.30;99.90;;;;;;4957012;28;20216;-76
2022/09/22 05:44:22;;;;;;;7.13;4.20;;;5.30;99.90;;;;;;4940562;29;20189;-73
2022/09/22 05:46:48;;;;;;;8.88;3.92;;;5.30;99.90;;;;;;4958004;28;20208;-75
2022/09/22 05:49:14;;;;;;;4.88;4.10;;;5.30;99.90;;;;;;4940618;29;20219;-76
2022/09/22 05:51:40;;;;;;;6.47;4.37;;;5.40;99.90;;;;;;4941020;29;20189;-76
2022/09/22 05:54:05;;;;;;;13.90;5.03;;;5.40;99.90;;;;;;4957581;28;20180;-74
2022/09/22 05:56:32;;;;;;;8.23;4.30;;;5.50;99.90;;;;;;4940810;29;20255;-75
2022/09/22 05:58:58;;;;;;;5.97;4.07;;;5.50;99.90;;;;;;4940462;29;20431;-74
2022/09/22 06:01:23;;;;;;;5.37;4.23;;;5.60;99.90;;;;;;4957678;28;20237;-74
2022/09/22 06:03:49;;;;;;;4.37;3.57;;;5.70;99.90;;;;;;4957016;29;20425;-73
2022/09/22 06:06:14;;;;;;;8.10;4.07;;;5.70;99.90;;;;;;4957472;29;20212;-74
2022/09/22 06:08:41;;;;;;;3.53;3.23;;;5.80;99.90;;;;;;4957403;28;20693;-76
2022/09/22 06:11:06;;;;;;;8.98;3.60;;;5.80;99.90;;;;;;4957589;29;20177;-75
2022/09/22 06:13:32;;;;;;;5.47;3.50;;;5.90;99.90;;;;;;4940183;29;20650;-76
2022/09/22 06:16:01;;;;;;;5.10;3.97;;;6.10;99.90;;;;;;4957010;28;20436;-74
2022/09/22 06:18:30;;;;;;;5.93;4.03;;;6.20;99.90;;;;;;4957326;28;20181;-75
2022/09/22 06:20:56;;;;;;;6.45;3.22;;;6.20;99.90;;;;;;4957289;28;20544;-76
2022/09/22 06:23:22;;;;;;;7.40;3.78;;;6.30;99.90;;;;;;4957441;29;20181;-74
2022/09/22 06:25:48;;;;;;;10.15;3.50;;;6.40;99.90;;;;;;4956607;29;20264;-75
2022/09/22 06:28:14;;;;;;;5.10;4.07;;;6.40;99.90;;;;;;4957063;29;20610;-74
2022/09/22 06:30:40;;;;;;;7.55;3.80;;;6.60;99.90;;;;;;4957063;29;20189;-74
2022/09/22 06:33:08;;;;;;;5.60;4.33;;;6.60;99.90;;;;;;4957170;28;20272;-74
2022/09/22 06:35:36;;;;;;;9.40;3.20;;;6.70;99.90;;;;;;4956808;29;20420;-75
2022/09/22 06:38:04;;;;;;;4.50;3.65;;;6.90;99.90;;;;;;4955674;29;20195;-74
2022/09/22 06:40:31;;;;;;;3.95;3.30;;;6.90;99.90;;;;;;4957093;29;20183;-73
2022/09/22 06:43:11;;;;;;;6.82;3.40;;;7.00;99.90;;;;;;4956907;29;20184;-75
2022/09/22 06:45:38;;;;;;;6.97;3.20;;;7.10;99.90;;;;;;4925097;29;20191;-77
2022/09/22 06:48:04;;;;;;;5.07;3.03;;;7.20;99.90;;;;;;4956835;29;20254;-75
2022/09/22 06:50:31;;;;;;;6.93;3.27;;;7.30;99.90;;;;;;4956477;28;20169;-74
2022/09/22 06:53:06;;;;;;;2.97;2.72;;;7.30;99.90;;;;;;4956804;29;20181;-74
2022/09/22 06:55:32;;;;;;;5.22;2.60;;;7.50;99.90;;;;;;4956521;29;20173;-76
2022/09/22 06:57:58;;;;;;;4.40;3.00;;;7.60;99.90;;;;;;4956474;29;20201;-76
2022/09/22 07:00:31;;;;;;;5.20;3.03;;;7.60;99.90;;;;;;4956509;29;20193;-74
2022/09/22 07:03:05;;;;;;;3.10;2.78;;;7.80;99.90;;;;;;4956581;28;20179;-74
2022/09/22 07:05:31;;;;;;;4.22;2.78;;;7.80;99.90;;;;;;4923272;29;20797;-75
2022/09/22 07:07:57;;;;;;;4.18;2.70;;;7.90;99.90;;;;;;4956089;29;20220;-75
2022/09/22 07:10:22;;;;;;;5.40;2.67;;;8.00;99.90;;;;;;4956277;28;20191;-75
2022/09/22 07:12:48;;;;;;;7.00;3.50;;;8.10;99.90;;;;;;4956347;28;20181;-75
2022/09/22 07:15:14;;;;;;;4.50;2.23;;;8.20;99.90;;;;;;4938835;29;20426;-75
2022/09/22 07:17:39;;;;;;;3.43;2.97;;;8.30;99.90;;;;;;4956138;28;20252;-76
2022/09/22 07:20:07;;;;;;;7.40;3.27;;;8.30;99.90;;;;;;4939096;29;20412;-75
2022/09/22 07:22:38;;;;;;;7.90;4.20;;;8.40;99.90;;;;;;4955209;29;20607;-74
2022/09/22 07:25:05;;;;;;;4.15;2.53;;;8.50;99.90;;;;;;4956081;29;20235;-74
2022/09/22 07:27:31;;;;;;;6.25;2.45;;;8.60;99.90;;;;;;4939235;29;20563;-74
2022/09/22 07:29:57;;;;;;;4.00;2.90;;;8.70;99.90;;;;;;4956179;29;20349;-74
2022/09/22 07:32:22;;;;;;;4.77;2.87;;;8.80;99.90;;;;;;4938924;29;20252;-75
2022/09/22 07:34:48;;;;;;;3.23;2.40;;;8.90;99.90;;;;;;4955719;28;20201;-76
2022/09/22 07:37:14;;;;;;;4.63;3.13;;;9.10;99.90;;;;;;4955967;28;20204;-75
2022/09/22 07:39:44;;;;;;;6.72;2.55;;;9.20;99.90;;;;;;4923103;29;20692;-75
2022/09/22 07:42:09;;;;;;;6.63;2.90;;;9.30;99.90;;;;;;4955821;29;20235;-75
2022/09/22 07:48:34;;;;;;;4.68;2.95;;;9.50;99.90;;;;;;4941415;29;20248;-75
2022/09/22 07:50:04;;;;;;;3.60;2.40;;;9.60;99.90;;;;;;4955657;28;20193;-75
2022/09/22 07:52:30;;;;;;;2.80;2.30;;;9.80;99.90;;;;;;4955639;29;20189;-76
2022/09/22 07:54:55;;;;;;;5.43;2.83;;;9.80;99.90;;;;;;4955387;28;20205;-74
2022/09/22 07:57:21;;;;;;;5.30;2.50;;;10.00;99.90;;;;;;4955792;28;20200;-76
2022/09/22 07:59:47;;;;;;;5.13;2.30;;;10.10;99.90;;;;;;4954434;28;20216;-74
2022/09/22 08:02:14;;;;;;;9.00;3.00;;;10.10;99.90;;;;;;4955172;28;20181;-75
2022/09/22 08:04:41;;;;;;;4.80;2.43;;;10.20;99.90;;;;;;4955153;28;20192;-76
2022/09/22 08:07:06;;;;;;;4.88;2.42;;;10.30;99.90;;;;;;4955482;29;20444;-76
2022/09/22 08:09:32;;;;;;;3.17;2.33;;;10.40;99.90;;;;;;4955454;29;20732;-75
2022/09/22 08:11:58;;;;;;;3.20;2.63;;;10.50;99.90;;;;;;4955403;28;20181;-74
2022/09/22 08:14:24;;;;;;;5.83;2.87;;;10.70;99.90;;;;;;4937841;29;20472;-75
2022/09/22 08:16:52;;;;;;;4.67;2.83;;;10.80;99.90;;;;;;4955088;29;20436;-74
2022/09/22 08:19:18;;;;;;;5.97;3.00;;;10.90;99.90;;;;;;4938048;29;20462;-76
2022/09/22 08:21:45;;;;;;;7.77;3.10;;;11.10;99.90;;;;;;4955447;29;20412;-76
2022/09/22 08:24:13;;;;;;;4.13;3.10;;;11.20;99.90;;;;;;4955033;29;20448;-74
2022/09/22 08:26:45;;;;;;;8.00;3.13;;;11.40;99.90;;;;;;4955027;29;20484;-74
2022/09/22 08:29:10;;;;;;;5.83;2.93;;;11.50;99.90;;;;;;4954952;29;20489;-77
2022/09/22 08:31:40;;;;;;;5.30;3.00;;;11.60;99.90;;;;;;4955045;29;20517;-76
2022/09/22 08:34:06;;;;;;;8.30;3.60;;;11.80;99.90;;;;;;4954941;28;20208;-74
2022/09/22 08:36:31;;;;;;;6.50;3.37;;;12.00;99.90;;;;;;4955087;29;20855;-76
2022/09/22 08:38:58;;;;;;;4.07;3.10;;;12.10;99.90;;;;;;4955005;28;20421;-76
2022/09/22 08:41:41;;;;;;;3.37;2.80;;;12.40;99.90;;;;;;4954118;28;20203;-74
2022/09/22 08:44:09;;;;;;;5.47;2.97;;;12.80;99.90;;;;;;4954773;29;20850;-77
2022/09/22 08:46:46;;;;;;;5.97;2.90;;;13.30;99.90;;;;;;4954906;29;20794;-75
2022/09/22 08:52:34;;;;;;;4.70;2.57;;;14.30;99.90;;;;;;4955415;28;20464;-76
2022/09/22 08:55:00;;;;;;;7.00;2.37;;;15.00;99.90;;;;;;4954556;28;20398;-75
2022/09/22 08:57:32;;;;;;;3.97;2.40;;;15.40;99.90;;;;;;4954871;29;20407;-75
2022/09/22 09:00:13;;;;;;;4.27;2.40;;;16.00;99.90;;;;;;4953662;29;20463;-76
2022/09/22 09:02:41;;;;;;;5.80;1.90;;;16.30;99.90;;;;;;4954892;29;20417;-78
2022/09/22 09:05:26;;;;;;;5.13;2.53;;;16.70;99.90;;;;;;4953177;28;20421;-77
2022/09/22 09:08:10;;;;;;;4.73;2.07;;;17.00;99.90;;;;;;4954718;29;20467;-77
2022/09/22 09:11:07;;;;;;;2.80;2.53;;;17.20;99.90;;;;;;4954714;29;20405;-74
2022/09/22 09:13:40;;;;;;;3.10;2.00;;;18.00;99.90;;;;;;4956087;28;20408;-77
2022/09/22 09:16:23;;;;;;;3.73;1.80;;;18.10;99.90;;;;;;4958276;29;20420;-74
2022/09/22 09:19:08;;;;;;;3.00;1.97;;;17.20;99.90;;;;;;4958408;29;20404;-76
2022/09/22 09:21:38;;;;;;;4.13;2.20;;;17.20;99.90;;;;;;4958461;28;20400;-75
2022/09/22 09:24:08;;;;;;;2.90;2.20;;;17.60;99.90;;;;;;4957990;29;20427;-77
2022/09/22 09:26:34;;;;;;;2.57;1.87;;;18.10;99.90;;;;;;4958176;28;20448;-76
2022/09/22 09:29:04;;;;;;;3.70;1.93;;;18.70;99.90;;;;;;4958058;28;20484;-75
2022/09/22 09:31:44;;;;;;;3.30;1.90;;;19.50;99.90;;;;;;4958526;28;20524;-76
2022/09/22 09:34:16;;;;;;;5.57;2.07;;;19.30;99.90;;;;;;4958092;28;20420;-75
2022/09/22 09:36:51;;;;;;;5.23;1.87;;;19.00;99.90;;;;;;4940864;29;20468;-76
2022/09/22 09:39:36;;;;;;;3.63;1.97;;;19.40;99.90;;;;;;4957997;29;20423;-78
2022/09/22 09:42:20;;;;;;;3.90;1.80;;;19.70;99.90;;;;;;4958124;29;20412;-76
2022/09/22 09:44:52;;;;;;;2.67;1.50;;;20.60;99.90;;;;;;4957695;28;20428;-74
2022/09/22 09:47:26;;;;;;;2.60;1.70;;;21.60;99.90;;;;;;4958050;29;20447;-78
2022/09/22 09:49:53;;;;;;;3.40;1.73;;;22.00;99.90;;;;;;4958032;29;20417;-75
2022/09/22 09:52:19;;;;;;;8.33;2.03;;;21.90;99.90;;;;;;4957889;28;20420;-77
2022/09/22 09:54:46;;;;;;;2.40;1.50;;;21.40;99.90;;;;;;4957461;28;20841;-75
2022/09/22 09:57:14;;;;;;;3.37;1.90;;;21.50;99.90;;;;;;4940690;29;20200;-75
2022/09/22 10:02:31;;;;;;;3.00;1.87;;;21.90;99.90;;;;;;4958135;28;20424;-75
2022/09/22 10:05:03;;;;;;;2.90;1.80;;;21.60;99.90;;;;;;4957405;29;20428;-75
2022/09/22 10:07:43;;;;;;;5.43;2.27;;;21.40;99.90;;;;;;4957272;29;20441;-76
2022/09/22 10:10:32;;;;;;;3.30;1.90;;;21.10;99.90;;;;;;4940431;29;20424;-77
2022/09/22 10:13:03;;;;;;;2.73;1.57;;;22.10;99.90;;;;;;4957685;28;20420;-77
2022/09/22 10:15:31;;;;;;;5.67;1.90;;;23.20;99.90;;;;;;4956915;29;20413;-76
2022/09/22 10:17:57;;;;;;;3.77;1.80;;;22.80;99.90;;;;;;4957127;29;20947;-77
2022/09/22 10:20:25;;;;;;;2.67;1.70;;;22.20;99.90;;;;;;4957443;28;20420;-77
2022/09/22 10:22:55;;;;;;;1.97;1.80;;;22.40;99.90;;;;;;4957343;29;20518;-75
2022/09/22 10:25:31;;;;;;;1.90;1.50;;;22.70;99.90;;;;;;4956253;28;20416;-76
2022/09/22 10:28:03;;;;;;;1.70;1.20;;;23.70;99.90;;;;;;4939957;29;20474;-75
2022/09/22 10:30:32;;;;;;;5.60;1.57;;;23.80;99.90;;;;;;4955775;29;20945;-78
2022/09/22 10:33:19;;;;;;;2.27;1.70;;;24.20;99.90;;;;;;4957310;28;20417;-78
2022/09/22 10:36:04;;;;;;;2.67;1.40;;;24.30;99.30;;;;;;4956775;28;20487;-78
2022/09/22 10:38:34;;;;;;;3.43;1.67;;;24.00;99.50;;;;;;4955880;29;20431;-76
2022/09/22 10:41:30;;;;;;;2.43;1.63;;;23.80;97.70;;;;;;4957352;29;20405;-79
2022/09/22 10:43:59;;;;;;;4.17;1.80;;;24.60;99.90;;;;;;4955705;29;20428;-76
2022/09/22 10:46:33;;;;;;;1.60;1.50;;;24.40;97.60;;;;;;4940269;29;20448;-77
2022/09/22 10:49:20;;;;;;;4.30;1.30;;;23.80;98.10;;;;;;4957013;29;20466;-78
2022/09/22 10:52:14;;;;;;;1.60;1.50;;;23.60;96.20;;;;;;4955601;29;20417;-74
2022/09/22 10:54:57;;;;;;;4.90;2.00;;;22.00;99.90;;;;;;4939142;29;20431;-77
2022/09/22 10:57:37;;;;;;;3.40;1.80;;;22.70;98.50;;;;;;4955690;29;20440;-76
2022/09/22 11:00:18;;;;;;;3.60;1.70;;;22.80;96.90;;;;;;4956603;29;20416;-80
2022/09/22 11:03:21;;;;;;;2.77;1.40;;;23.00;98.20;;;;;;4923944;29;20420;-77
2022/09/22 11:14:52;;;;;;;3.17;1.60;;;23.60;93.90;;;;;;4956176;29;20412;-78
2022/09/22 11:17:28;;;;;;;2.50;1.70;;;23.00;98.80;;;;;;4956363;28;20432;-76
2022/09/22 11:20:02;;;;;;;2.20;1.53;;;23.20;98.80;;;;;;4955241;29;20560;-77
2022/09/22 11:22:58;;;;;;;2.10;1.50;;;24.00;98.70;;;;;;4956175;29;20416;-76
2022/09/22 11:25:35;;;;;;;5.07;2.00;;;23.30;97.20;;;;;;4955858;29;20415;-75
2022/09/22 11:28:35;;;;;;;3.20;1.57;;;23.50;96.80;;;;;;4954859;29;20501;-77
2022/09/22 11:31:00;;;;;;;2.27;1.40;;;23.60;96.60;;;;;;4936924;29;20418;-80
2022/09/22 11:34:05;;;;;;;1.17;1.07;;;23.70;93.30;;;;;;4935603;29;20445;-79
2022/09/22 11:36:54;;;;;;;2.37;1.97;;;23.60;95.50;;;;;;4936325;29;20275;-77
2022/09/22 11:39:30;;;;;;;1.63;1.40;;;23.90;94.30;;;;;;4919973;29;20870;-76
2022/09/22 11:42:39;;;;;;;1.93;1.73;;;24.90;93.40;;;;;;4936877;29;20417;-75
2022/09/22 11:45:26;;;;;;;2.27;2.00;;;24.90;94.70;;;;;;4936523;29;20417;-76
2022/09/22 11:48:24;;;;;;;1.73;1.50;;;24.70;92.90;;;;;;4936722;29;20471;-77
2022/09/22 11:51:19;;;;;;;3.13;1.80;;;25.50;92.00;;;;;;4936743;29;20417;-78
2022/09/22 11:54:03;;;;;;;1.40;1.20;;;25.60;89.10;;;;;;4919548;29;21032;-78
2022/09/22 11:56:41;;;;;;;1.30;1.10;;;25.30;89.40;;;;;;4919512;29;20449;-77
2022/09/22 11:59:23;;;;;;;2.17;1.40;;;25.70;86.40;;;;;;4936601;29;20763;-76
2022/09/22 12:01:49;;;;;;;1.27;1.17;;;26.10;81.50;;;;;;4936537;29;20452;-78
2022/09/22 12:04:48;;;;;;;1.57;1.33;;;25.70;77.50;;;;;;4919178;29;20425;-76
2022/09/22 12:07:36;;;;;;;1.73;1.30;;;24.80;80.50;;;;;;4934962;29;20995;-75
2022/09/22 12:10:05;;;;;;;1.43;1.33;;;24.30;87.50;;;;;;4921677;29;20480;-76
2022/09/22 12:12:32;;;;;;;1.10;1.00;;;25.30;85.70;;;;;;4936108;29;20417;-76
2022/09/22 12:15:14;;;;;;;1.50;1.00;;;26.00;81.80;;;;;;4935909;29;20417;-75
2022/09/22 12:17:50;;;;;;;4.60;1.07;;;26.80;74.10;;;;;;4919087;29;20437;-75
2022/09/22 12:20:32;;;;;;;1.30;1.20;;;26.90;70.40;;;;;;4936159;29;20767;-76
2022/09/22 12:23:13;;;;;;;2.03;1.20;;;26.50;71.20;;;;;;4936258;29;20409;-77
2022/09/22 12:25:49;;;;;;;1.13;1.00;;;26.30;66.50;;;;;;4935794;29;20404;-77
2022/09/22 12:28:24;;;;;;;0.87;0.87;;;26.30;71.30;;;;;;4936287;29;20499;-77
2022/09/22 12:31:12;;;;;;;0.90;0.80;;;26.10;65.00;;;;;;4954411;29;20463;-79
2022/09/22 12:34:03;;;;;;;1.43;1.10;;;26.40;65.80;;;;;;4947848;29;20504;-79
2022/09/22 12:36:37;;;;;;;1.40;1.00;;;26.50;65.40;;;;;;4955242;28;20484;-79
2022/09/22 12:39:29;;;;;;;2.40;1.00;;;26.50;59.80;;;;;;4955204;29;20494;-75
2022/09/22 12:42:26;;;;;;;1.13;0.90;;;27.10;62.50;;;;;;4955226;29;20475;-76
2022/09/22 12:44:56;;;;;;;1.70;0.87;;;27.10;59.10;;;;;;4939224;29;20950;-78
2022/09/22 12:47:36;;;;;;;1.73;0.90;;;26.90;60.90;;;;;;4938858;28;20455;-78
2022/09/22 12:50:22;;;;;;;2.13;1.03;;;27.20;59.60;;;;;;4958997;29;20396;-79
2022/09/22 12:52:49;;;;;;;2.70;1.10;;;27.80;62.30;;;;;;4958891;29;20416;-78
2022/09/22 12:55:28;;;;;;;2.83;1.20;;;27.50;59.90;;;;;;4958583;29;20791;-78
2022/09/22 12:58:00;;;;;;;1.10;0.97;;;27.60;59.50;;;;;;4959041;28;20799;-77
2022/09/22 13:00:39;;;;;;;2.00;1.00;;;27.50;58.50;;;;;;4958981;29;20409;-78
2022/09/22 13:03:23;;;;;;;2.60;1.07;;;27.80;61.50;;;;;;4958772;29;20412;-77
2022/09/22 13:05:57;;;;;;;1.77;0.90;;;27.70;62.10;;;;;;4958372;28;20757;-78
2022/09/22 13:08:29;;;;;;;1.37;1.10;;;27.50;60.30;;;;;;4958545;29;20460;-79
2022/09/22 13:10:54;;;;;;;1.73;1.13;;;27.50;59.60;;;;;;4957500;29;20467;-76
2022/09/22 13:13:32;;;;;;;2.00;1.10;;;28.00;58.50;;;;;;4958544;29;20420;-78
2022/09/22 13:16:00;;;;;;;1.17;1.03;;;28.10;60.20;;;;;;4958198;29;20188;-75
2022/09/22 13:18:33;;;;;;;2.50;1.40;;;28.00;59.30;;;;;;4958532;29;20459;-78
2022/09/22 13:21:01;;;;;;;1.30;0.83;;;28.00;56.30;;;;;;4958413;28;20420;-77
2022/09/22 13:23:27;;;;;;;1.13;0.90;;;26.50;55.60;;;;;;4958518;29;20420;-79
2022/09/22 13:25:53;;;;;;;1.23;1.10;;;26.80;59.30;;;;;;4957988;29;20424;-78
2022/09/22 13:28:24;;;;;;;1.50;1.17;;;27.50;57.40;;;;;;4958239;29;20611;-76
2022/09/22 13:31:01;;;;;;;1.10;1.00;;;27.40;58.40;;;;;;4958208;29;20558;-76
2022/09/22 13:33:32;;;;;;;1.20;1.10;;;27.40;57.80;;;;;;4958310;29;20415;-75